Zell, Missouri
Current Conditions -  °F | °C
As of 10:15 AM on Sunday 23 Nov 2014 (Local Time) from KSAR Reporting Station
Drizzle Drizzle  
Wind Chill: 54°   Ceiling: 1600
Heat Index: 54°   Visibility: 10mi
Dew Point: 51°   Wind: 8mph
Humidity: 89%   Direction: 130°SE
Pressure: 29.67"   Gusts: NA
Location:  37.9762°N, 90.0499°W
Report Text: KSAR 231615Z AUTO 13007KT 10SM DZ OVC016 12/10 A2967 RMK AO2 T01200103
Loading
Personal Weather Stations






























Interactive Weather Map New forecast layout! Learn more

10-Day Weather Forecast

Advertisements
Track Severe Weather on mobile